sensor_id;sensor_type;location;lat;lon;timestamp;P1;durP1;ratioP1;P2;durP2;ratioP2
36971;SDS011;40554;52.122;20.678;2022-11-24T00:01:41;54.63;;;22.95;;
36971;SDS011;40554;52.122;20.678;2022-11-24T00:03:58;63.60;;;27.90;;
36971;SDS011;40554;52.122;20.678;2022-11-24T00:06:17;67.08;;;28.92;;
36971;SDS011;40554;52.122;20.678;2022-11-24T00:08:34;65.95;;;26.50;;
36971;SDS011;40554;52.122;20.678;2022-11-24T00:10:51;80.05;;;29.30;;
36971;SDS011;40554;52.122;20.678;2022-11-24T00:13:07;67.00;;;26.07;;
36971;SDS011;40554;52.122;20.678;2022-11-24T00:15:24;71.12;;;29.35;;
36971;SDS011;40554;52.122;20.678;2022-11-24T00:17:40;64.87;;;27.67;;
36971;SDS011;40554;52.122;20.678;2022-11-24T00:19:56;69.75;;;27.42;;
36971;SDS011;40554;52.122;20.678;2022-11-24T00:22:12;69.12;;;27.50;;
36971;SDS011;40554;52.122;20.678;2022-11-24T00:24:29;65.47;;;26.50;;
36971;SDS011;40554;52.122;20.678;2022-11-24T00:26:45;64.25;;;27.35;;
36971;SDS011;40554;52.122;20.678;2022-11-24T00:29:02;75.32;;;29.98;;
36971;SDS011;40554;52.122;20.678;2022-11-24T00:31:27;70.25;;;27.82;;
36971;SDS011;40554;52.122;20.678;2022-11-24T00:33:45;68.15;;;28.83;;
36971;SDS011;40554;52.122;20.678;2022-11-24T00:36:04;77.97;;;30.02;;
36971;SDS011;40554;52.122;20.678;2022-11-24T00:38:20;70.57;;;28.52;;
36971;SDS011;40554;52.122;20.678;2022-11-24T00:40:37;69.25;;;29.75;;
36971;SDS011;40554;52.122;20.678;2022-11-24T00:42:53;71.42;;;28.73;;
36971;SDS011;40554;52.122;20.678;2022-11-24T00:45:09;69.00;;;29.15;;
36971;SDS011;40554;52.122;20.678;2022-11-24T00:47:25;71.33;;;28.27;;
36971;SDS011;40554;52.122;20.678;2022-11-24T00:49:43;59.65;;;26.27;;
36971;SDS011;40554;52.122;20.678;2022-11-24T00:51:59;67.45;;;28.80;;
36971;SDS011;40554;52.122;20.678;2022-11-24T00:54:15;63.28;;;25.77;;
36971;SDS011;40554;52.122;20.678;2022-11-24T00:56:32;65.75;;;28.35;;
36971;SDS011;40554;52.122;20.678;2022-11-24T00:58:49;62.95;;;25.40;;
36971;SDS011;40554;52.122;20.678;2022-11-24T01:01:06;62.05;;;26.80;;
36971;SDS011;40554;52.122;20.678;2022-11-24T01:03:26;71.20;;;29.02;;
36971;SDS011;40554;52.122;20.678;2022-11-24T01:05:42;66.05;;;28.10;;
36971;SDS011;40554;52.122;20.678;2022-11-24T01:07:58;69.17;;;27.42;;
36971;SDS011;40554;52.122;20.678;2022-11-24T01:10:14;67.95;;;28.60;;
36971;SDS011;40554;52.122;20.678;2022-11-24T01:12:31;67.00;;;28.52;;
36971;SDS011;40554;52.122;20.678;2022-11-24T01:14:49;70.45;;;26.12;;
36971;SDS011;40554;52.122;20.678;2022-11-24T01:17:05;69.00;;;28.32;;
36971;SDS011;40554;52.122;20.678;2022-11-24T01:19:21;66.62;;;26.93;;
36971;SDS011;40554;52.122;20.678;2022-11-24T01:21:39;66.85;;;27.00;;
36971;SDS011;40554;52.122;20.678;2022-11-24T01:23:55;58.25;;;24.80;;
36971;SDS011;40554;52.122;20.678;2022-11-24T01:26:14;66.12;;;26.82;;
36971;SDS011;40554;52.122;20.678;2022-11-24T01:28:33;63.90;;;25.68;;
36971;SDS011;40554;52.122;20.678;2022-11-24T01:31:00;69.22;;;27.70;;
36971;SDS011;40554;52.122;20.678;2022-11-24T01:33:18;67.30;;;26.62;;
36971;SDS011;40554;52.122;20.678;2022-11-24T01:35:35;60.95;;;24.90;;
36971;SDS011;40554;52.122;20.678;2022-11-24T01:37:51;63.00;;;25.17;;
36971;SDS011;40554;52.122;20.678;2022-11-24T01:40:08;57.83;;;23.25;;
36971;SDS011;40554;52.122;20.678;2022-11-24T01:42:26;61.30;;;24.18;;
36971;SDS011;40554;52.122;20.678;2022-11-24T01:47:48;62.90;;;25.25;;
36971;SDS011;40554;52.122;20.678;2022-11-24T01:50:05;73.17;;;27.05;;
36971;SDS011;40554;52.122;20.678;2022-11-24T01:54:57;74.15;;;29.45;;
36971;SDS011;40554;52.122;20.678;2022-11-24T01:57:22;74.50;;;27.00;;
36971;SDS011;40554;52.122;20.678;2022-11-24T01:59:47;65.92;;;25.12;;
36971;SDS011;40554;52.122;20.678;2022-11-24T02:02:07;63.98;;;26.82;;
36971;SDS011;40554;52.122;20.678;2022-11-24T02:04:25;69.03;;;25.75;;
36971;SDS011;40554;52.122;20.678;2022-11-24T02:06:44;59.77;;;23.55;;
36971;SDS011;40554;52.122;20.678;2022-11-24T02:09:04;64.77;;;25.77;;
36971;SDS011;40554;52.122;20.678;2022-11-24T02:11:32;66.55;;;25.20;;
36971;SDS011;40554;52.122;20.678;2022-11-24T02:13:52;63.45;;;24.27;;
36971;SDS011;40554;52.122;20.678;2022-11-24T02:16:10;62.30;;;24.32;;
36971;SDS011;40554;52.122;20.678;2022-11-24T02:18:27;65.52;;;26.68;;
36971;SDS011;40554;52.122;20.678;2022-11-24T02:20:43;77.65;;;28.32;;
36971;SDS011;40554;52.122;20.678;2022-11-24T02:28:07;64.32;;;26.35;;
36971;SDS011;40554;52.122;20.678;2022-11-24T02:30:30;60.78;;;26.75;;
36971;SDS011;40554;52.122;20.678;2022-11-24T02:32:47;71.10;;;25.75;;
36971;SDS011;40554;52.122;20.678;2022-11-24T02:35:05;71.57;;;27.75;;
36971;SDS011;40554;52.122;20.678;2022-11-24T02:37:23;63.00;;;26.33;;
36971;SDS011;40554;52.122;20.678;2022-11-24T02:39:39;74.03;;;27.45;;
36971;SDS011;40554;52.122;20.678;2022-11-24T02:41:57;64.07;;;26.20;;
36971;SDS011;40554;52.122;20.678;2022-11-24T02:44:24;70.12;;;27.82;;
36971;SDS011;40554;52.122;20.678;2022-11-24T02:46:44;66.22;;;26.30;;
36971;SDS011;40554;52.122;20.678;2022-11-24T02:49:00;70.52;;;27.30;;
36971;SDS011;40554;52.122;20.678;2022-11-24T02:51:16;61.08;;;24.82;;
36971;SDS011;40554;52.122;20.678;2022-11-24T02:53:33;64.05;;;25.23;;
36971;SDS011;40554;52.122;20.678;2022-11-24T02:55:49;71.05;;;28.07;;
36971;SDS011;40554;52.122;20.678;2022-11-24T02:58:06;65.03;;;27.13;;
36971;SDS011;40554;52.122;20.678;2022-11-24T03:00:22;65.40;;;26.15;;
36971;SDS011;40554;52.122;20.678;2022-11-24T03:02:39;69.82;;;26.95;;
36971;SDS011;40554;52.122;20.678;2022-11-24T03:04:55;67.97;;;26.27;;
36971;SDS011;40554;52.122;20.678;2022-11-24T03:07:12;59.93;;;23.05;;
36971;SDS011;40554;52.122;20.678;2022-11-24T03:09:28;59.53;;;21.50;;
36971;SDS011;40554;52.122;20.678;2022-11-24T03:11:45;59.05;;;22.98;;
36971;SDS011;40554;52.122;20.678;2022-11-24T03:14:01;52.17;;;22.45;;
36971;SDS011;40554;52.122;20.678;2022-11-24T03:16:19;56.53;;;22.07;;
36971;SDS011;40554;52.122;20.678;2022-11-24T03:18:35;57.08;;;21.27;;
36971;SDS011;40554;52.122;20.678;2022-11-24T03:20:51;49.40;;;22.42;;
36971;SDS011;40554;52.122;20.678;2022-11-24T03:23:07;57.83;;;23.32;;
36971;SDS011;40554;52.122;20.678;2022-11-24T03:25:24;58.38;;;23.92;;
36971;SDS011;40554;52.122;20.678;2022-11-24T03:27:40;54.23;;;23.05;;
36971;SDS011;40554;52.122;20.678;2022-11-24T03:29:56;54.05;;;23.83;;
36971;SDS011;40554;52.122;20.678;2022-11-24T03:32:13;50.60;;;20.32;;
36971;SDS011;40554;52.122;20.678;2022-11-24T03:34:29;48.58;;;21.15;;
36971;SDS011;40554;52.122;20.678;2022-11-24T03:36:45;48.65;;;20.88;;
36971;SDS011;40554;52.122;20.678;2022-11-24T03:39:01;40.17;;;17.32;;
36971;SDS011;40554;52.122;20.678;2022-11-24T03:41:18;49.50;;;18.98;;
36971;SDS011;40554;52.122;20.678;2022-11-24T03:43:34;51.63;;;20.25;;
36971;SDS011;40554;52.122;20.678;2022-11-24T03:45:51;51.23;;;18.80;;
36971;SDS011;40554;52.122;20.678;2022-11-24T03:48:07;52.20;;;18.70;;
36971;SDS011;40554;52.122;20.678;2022-11-24T03:50:23;42.90;;;18.98;;
36971;SDS011;40554;52.122;20.678;2022-11-24T03:52:40;43.05;;;18.30;;
36971;SDS011;40554;52.122;20.678;2022-11-24T03:54:56;47.20;;;21.33;;
36971;SDS011;40554;52.122;20.678;2022-11-24T03:57:12;48.25;;;20.68;;
36971;SDS011;40554;52.122;20.678;2022-11-24T03:59:28;44.18;;;19.30;;
36971;SDS011;40554;52.122;20.678;2022-11-24T04:01:45;43.40;;;18.20;;
36971;SDS011;40554;52.122;20.678;2022-11-24T04:04:01;44.27;;;19.87;;
36971;SDS011;40554;52.122;20.678;2022-11-24T04:06:17;47.10;;;18.30;;
36971;SDS011;40554;52.122;20.678;2022-11-24T04:08:34;45.15;;;18.40;;
36971;SDS011;40554;52.122;20.678;2022-11-24T04:10:51;45.40;;;19.12;;
36971;SDS011;40554;52.122;20.678;2022-11-24T04:13:12;45.88;;;19.87;;
36971;SDS011;40554;52.122;20.678;2022-11-24T04:15:31;34.85;;;16.65;;
36971;SDS011;40554;52.122;20.678;2022-11-24T04:17:48;44.42;;;19.50;;
36971;SDS011;40554;52.122;20.678;2022-11-24T04:20:05;43.70;;;19.40;;
36971;SDS011;40554;52.122;20.678;2022-11-24T04:22:23;37.80;;;15.98;;
36971;SDS011;40554;52.122;20.678;2022-11-24T04:24:39;39.88;;;18.02;;
36971;SDS011;40554;52.122;20.678;2022-11-24T04:26:56;38.92;;;16.07;;
36971;SDS011;40554;52.122;20.678;2022-11-24T04:29:12;39.95;;;16.75;;
36971;SDS011;40554;52.122;20.678;2022-11-24T04:31:28;41.75;;;19.02;;
36971;SDS011;40554;52.122;20.678;2022-11-24T04:33:44;39.45;;;17.57;;
36971;SDS011;40554;52.122;20.678;2022-11-24T04:36:01;32.70;;;16.07;;
36971;SDS011;40554;52.122;20.678;2022-11-24T04:38:17;34.78;;;14.87;;
36971;SDS011;40554;52.122;20.678;2022-11-24T04:40:33;37.13;;;15.10;;
36971;SDS011;40554;52.122;20.678;2022-11-24T04:42:53;32.05;;;14.53;;
36971;SDS011;40554;52.122;20.678;2022-11-24T04:45:10;30.72;;;14.23;;
36971;SDS011;40554;52.122;20.678;2022-11-24T04:47:26;31.52;;;14.07;;
36971;SDS011;40554;52.122;20.678;2022-11-24T04:49:43;32.48;;;14.47;;
36971;SDS011;40554;52.122;20.678;2022-11-24T04:52:01;35.30;;;14.98;;
36971;SDS011;40554;52.122;20.678;2022-11-24T04:54:17;36.30;;;15.18;;
36971;SDS011;40554;52.122;20.678;2022-11-24T04:56:34;33.35;;;16.05;;
36971;SDS011;40554;52.122;20.678;2022-11-24T04:58:50;35.13;;;13.98;;
36971;SDS011;40554;52.122;20.678;2022-11-24T05:01:08;33.05;;;15.35;;
36971;SDS011;40554;52.122;20.678;2022-11-24T05:03:24;28.47;;;12.23;;
36971;SDS011;40554;52.122;20.678;2022-11-24T05:05:40;31.55;;;15.88;;
36971;SDS011;40554;52.122;20.678;2022-11-24T05:08:00;33.00;;;14.70;;
36971;SDS011;40554;52.122;20.678;2022-11-24T05:10:16;31.62;;;14.60;;
36971;SDS011;40554;52.122;20.678;2022-11-24T05:12:54;33.28;;;14.95;;
36971;SDS011;40554;52.122;20.678;2022-11-24T05:15:13;35.30;;;16.37;;
36971;SDS011;40554;52.122;20.678;2022-11-24T05:17:30;36.48;;;15.48;;
36971;SDS011;40554;52.122;20.678;2022-11-24T05:19:49;32.30;;;15.48;;
36971;SDS011;40554;52.122;20.678;2022-11-24T05:22:05;39.38;;;15.70;;
36971;SDS011;40554;52.122;20.678;2022-11-24T05:24:21;37.53;;;16.75;;
36971;SDS011;40554;52.122;20.678;2022-11-24T05:26:37;32.65;;;15.93;;
36971;SDS011;40554;52.122;20.678;2022-11-24T05:28:54;36.58;;;16.10;;
36971;SDS011;40554;52.122;20.678;2022-11-24T05:31:10;28.90;;;14.58;;
36971;SDS011;40554;52.122;20.678;2022-11-24T05:33:26;26.23;;;13.58;;
36971;SDS011;40554;52.122;20.678;2022-11-24T05:35:44;36.25;;;16.00;;
36971;SDS011;40554;52.122;20.678;2022-11-24T05:38:03;29.87;;;13.90;;
36971;SDS011;40554;52.122;20.678;2022-11-24T05:40:19;39.65;;;15.48;;
36971;SDS011;40554;52.122;20.678;2022-11-24T05:42:35;38.40;;;16.20;;
36971;SDS011;40554;52.122;20.678;2022-11-24T05:44:54;38.78;;;15.88;;
36971;SDS011;40554;52.122;20.678;2022-11-24T05:47:11;34.18;;;15.90;;
36971;SDS011;40554;52.122;20.678;2022-11-24T05:49:28;31.48;;;14.95;;
36971;SDS011;40554;52.122;20.678;2022-11-24T05:51:44;31.20;;;14.03;;
36971;SDS011;40554;52.122;20.678;2022-11-24T05:54:00;37.20;;;18.55;;
36971;SDS011;40554;52.122;20.678;2022-11-24T05:56:16;44.30;;;19.52;;
36971;SDS011;40554;52.122;20.678;2022-11-24T05:58:33;38.15;;;19.05;;
36971;SDS011;40554;52.122;20.678;2022-11-24T06:00:49;35.48;;;16.50;;
36971;SDS011;40554;52.122;20.678;2022-11-24T06:03:05;32.85;;;16.02;;
36971;SDS011;40554;52.122;20.678;2022-11-24T06:05:21;34.15;;;16.42;;
36971;SDS011;40554;52.122;20.678;2022-11-24T06:07:38;33.48;;;15.90;;
36971;SDS011;40554;52.122;20.678;2022-11-24T06:09:55;33.48;;;14.60;;
36971;SDS011;40554;52.122;20.678;2022-11-24T06:12:11;27.35;;;14.20;;
36971;SDS011;40554;52.122;20.678;2022-11-24T06:14:28;29.55;;;14.25;;
36971;SDS011;40554;52.122;20.678;2022-11-24T06:16:44;32.67;;;13.68;;
36971;SDS011;40554;52.122;20.678;2022-11-24T06:19:01;32.20;;;15.40;;
36971;SDS011;40554;52.122;20.678;2022-11-24T06:21:17;33.78;;;15.95;;
36971;SDS011;40554;52.122;20.678;2022-11-24T06:23:33;40.88;;;17.60;;
36971;SDS011;40554;52.122;20.678;2022-11-24T06:25:50;36.40;;;15.10;;
36971;SDS011;40554;52.122;20.678;2022-11-24T06:28:06;38.45;;;15.83;;
36971;SDS011;40554;52.122;20.678;2022-11-24T06:30:22;42.98;;;17.65;;
36971;SDS011;40554;52.122;20.678;2022-11-24T06:32:39;42.83;;;18.20;;
36971;SDS011;40554;52.122;20.678;2022-11-24T06:34:57;36.68;;;17.23;;
36971;SDS011;40554;52.122;20.678;2022-11-24T06:37:13;36.00;;;15.32;;
36971;SDS011;40554;52.122;20.678;2022-11-24T06:39:29;29.82;;;14.58;;
36971;SDS011;40554;52.122;20.678;2022-11-24T06:41:48;39.58;;;15.90;;
36971;SDS011;40554;52.122;20.678;2022-11-24T06:44:07;35.05;;;15.05;;
36971;SDS011;40554;52.122;20.678;2022-11-24T06:46:23;34.35;;;15.65;;
36971;SDS011;40554;52.122;20.678;2022-11-24T06:48:40;36.05;;;16.42;;
36971;SDS011;40554;52.122;20.678;2022-11-24T06:51:04;35.52;;;15.93;;
36971;SDS011;40554;52.122;20.678;2022-11-24T06:53:22;30.20;;;14.65;;
36971;SDS011;40554;52.122;20.678;2022-11-24T06:55:39;31.30;;;14.95;;
36971;SDS011;40554;52.122;20.678;2022-11-24T06:57:55;34.60;;;15.48;;
36971;SDS011;40554;52.122;20.678;2022-11-24T07:00:12;37.90;;;17.25;;
36971;SDS011;40554;52.122;20.678;2022-11-24T07:02:29;36.98;;;17.12;;
36971;SDS011;40554;52.122;20.678;2022-11-24T07:04:45;37.50;;;17.00;;
36971;SDS011;40554;52.122;20.678;2022-11-24T07:07:02;35.40;;;16.67;;
36971;SDS011;40554;52.122;20.678;2022-11-24T07:09:18;39.88;;;17.40;;
36971;SDS011;40554;52.122;20.678;2022-11-24T07:11:34;44.80;;;18.75;;
36971;SDS011;40554;52.122;20.678;2022-11-24T07:13:51;44.53;;;18.75;;
36971;SDS011;40554;52.122;20.678;2022-11-24T07:18:34;39.03;;;17.62;;
36971;SDS011;40554;52.122;20.678;2022-11-24T07:20:50;38.30;;;16.70;;
36971;SDS011;40554;52.122;20.678;2022-11-24T07:23:07;38.95;;;16.73;;
36971;SDS011;40554;52.122;20.678;2022-11-24T07:25:24;37.10;;;17.15;;
36971;SDS011;40554;52.122;20.678;2022-11-24T07:27:40;37.93;;;18.05;;
36971;SDS011;40554;52.122;20.678;2022-11-24T07:29:57;35.35;;;16.50;;
36971;SDS011;40554;52.122;20.678;2022-11-24T07:32:13;40.70;;;17.45;;
36971;SDS011;40554;52.122;20.678;2022-11-24T07:34:29;45.88;;;21.52;;
36971;SDS011;40554;52.122;20.678;2022-11-24T07:36:45;40.30;;;17.50;;
36971;SDS011;40554;52.122;20.678;2022-11-24T07:39:04;34.78;;;17.27;;
36971;SDS011;40554;52.122;20.678;2022-11-24T07:41:21;38.33;;;17.55;;
36971;SDS011;40554;52.122;20.678;2022-11-24T07:43:37;38.05;;;18.02;;
36971;SDS011;40554;52.122;20.678;2022-11-24T07:45:54;41.92;;;18.02;;
36971;SDS011;40554;52.122;20.678;2022-11-24T07:48:10;45.23;;;21.42;;
36971;SDS011;40554;52.122;20.678;2022-11-24T07:50:26;42.55;;;19.65;;
36971;SDS011;40554;52.122;20.678;2022-11-24T07:52:43;42.53;;;19.70;;
36971;SDS011;40554;52.122;20.678;2022-11-24T07:54:59;43.13;;;19.27;;
36971;SDS011;40554;52.122;20.678;2022-11-24T07:57:15;45.58;;;19.75;;
36971;SDS011;40554;52.122;20.678;2022-11-24T07:59:31;53.87;;;22.73;;
36971;SDS011;40554;52.122;20.678;2022-11-24T08:01:48;54.58;;;24.50;;
36971;SDS011;40554;52.122;20.678;2022-11-24T08:04:04;50.25;;;22.17;;
36971;SDS011;40554;52.122;20.678;2022-11-24T08:06:20;53.35;;;22.82;;
36971;SDS011;40554;52.122;20.678;2022-11-24T08:08:36;40.83;;;20.15;;
36971;SDS011;40554;52.122;20.678;2022-11-24T08:10:53;42.78;;;19.80;;
36971;SDS011;40554;52.122;20.678;2022-11-24T08:13:09;46.85;;;21.23;;
36971;SDS011;40554;52.122;20.678;2022-11-24T08:15:25;43.55;;;20.48;;
36971;SDS011;40554;52.122;20.678;2022-11-24T08:17:42;36.50;;;18.52;;
36971;SDS011;40554;52.122;20.678;2022-11-24T08:19:58;42.90;;;18.90;;
36971;SDS011;40554;52.122;20.678;2022-11-24T08:22:14;43.70;;;21.17;;
36971;SDS011;40554;52.122;20.678;2022-11-24T08:24:30;41.92;;;20.20;;
36971;SDS011;40554;52.122;20.678;2022-11-24T08:26:47;42.10;;;20.43;;
36971;SDS011;40554;52.122;20.678;2022-11-24T08:29:03;40.28;;;19.75;;
36971;SDS011;40554;52.122;20.678;2022-11-24T08:31:19;43.45;;;21.15;;
36971;SDS011;40554;52.122;20.678;2022-11-24T08:33:36;48.15;;;21.15;;
36971;SDS011;40554;52.122;20.678;2022-11-24T08:35:53;47.58;;;22.40;;
36971;SDS011;40554;52.122;20.678;2022-11-24T08:38:09;42.23;;;20.90;;
36971;SDS011;40554;52.122;20.678;2022-11-24T08:40:25;44.33;;;21.68;;
36971;SDS011;40554;52.122;20.678;2022-11-24T08:42:42;40.48;;;20.27;;
36971;SDS011;40554;52.122;20.678;2022-11-24T08:44:58;38.33;;;19.10;;
36971;SDS011;40554;52.122;20.678;2022-11-24T08:47:14;35.58;;;17.27;;
36971;SDS011;40554;52.122;20.678;2022-11-24T08:49:31;40.90;;;18.57;;
36971;SDS011;40554;52.122;20.678;2022-11-24T08:51:47;36.05;;;16.95;;
36971;SDS011;40554;52.122;20.678;2022-11-24T08:54:05;34.10;;;16.67;;
36971;SDS011;40554;52.122;20.678;2022-11-24T08:56:22;38.83;;;17.35;;
36971;SDS011;40554;52.122;20.678;2022-11-24T08:58:40;37.20;;;18.17;;
36971;SDS011;40554;52.122;20.678;2022-11-24T09:01:13;36.45;;;17.27;;
36971;SDS011;40554;52.122;20.678;2022-11-24T09:03:31;37.88;;;18.32;;
36971;SDS011;40554;52.122;20.678;2022-11-24T09:05:48;36.00;;;16.93;;
36971;SDS011;40554;52.122;20.678;2022-11-24T09:08:05;34.90;;;16.95;;
36971;SDS011;40554;52.122;20.678;2022-11-24T09:10:21;35.33;;;16.62;;
36971;SDS011;40554;52.122;20.678;2022-11-24T09:12:37;35.15;;;16.93;;
36971;SDS011;40554;52.122;20.678;2022-11-24T09:14:53;38.17;;;17.35;;
36971;SDS011;40554;52.122;20.678;2022-11-24T09:17:10;37.15;;;18.05;;
36971;SDS011;40554;52.122;20.678;2022-11-24T09:19:26;39.92;;;16.37;;
36971;SDS011;40554;52.122;20.678;2022-11-24T09:21:43;32.73;;;16.25;;
36971;SDS011;40554;52.122;20.678;2022-11-24T09:23:59;33.08;;;16.55;;
36971;SDS011;40554;52.122;20.678;2022-11-24T09:26:20;35.13;;;17.02;;
36971;SDS011;40554;52.122;20.678;2022-11-24T09:28:42;35.30;;;17.75;;
36971;SDS011;40554;52.122;20.678;2022-11-24T09:31:05;32.28;;;16.05;;
36971;SDS011;40554;52.122;20.678;2022-11-24T09:33:20;33.58;;;16.65;;
36971;SDS011;40554;52.122;20.678;2022-11-24T09:35:36;37.00;;;18.60;;
36971;SDS011;40554;52.122;20.678;2022-11-24T09:37:53;37.30;;;17.52;;
36971;SDS011;40554;52.122;20.678;2022-11-24T09:40:11;31.52;;;16.73;;
36971;SDS011;40554;52.122;20.678;2022-11-24T09:42:34;38.63;;;19.10;;
36971;SDS011;40554;52.122;20.678;2022-11-24T09:47:58;45.17;;;21.90;;
36971;SDS011;40554;52.122;20.678;2022-11-24T09:50:33;37.13;;;20.15;;
36971;SDS011;40554;52.122;20.678;2022-11-24T09:55:39;42.13;;;22.17;;
36971;SDS011;40554;52.122;20.678;2022-11-24T10:00:44;36.80;;;18.23;;
36971;SDS011;40554;52.122;20.678;2022-11-24T10:03:03;35.38;;;19.50;;
36971;SDS011;40554;52.122;20.678;2022-11-24T10:05:21;44.40;;;21.80;;
36971;SDS011;40554;52.122;20.678;2022-11-24T10:07:47;43.85;;;20.80;;
36971;SDS011;40554;52.122;20.678;2022-11-24T10:10:18;40.67;;;20.77;;
36971;SDS011;40554;52.122;20.678;2022-11-24T10:24:22;34.35;;;17.23;;
36971;SDS011;40554;52.122;20.678;2022-11-24T10:26:50;34.08;;;18.30;;
36971;SDS011;40554;52.122;20.678;2022-11-24T10:29:24;34.15;;;18.73;;
36971;SDS011;40554;52.122;20.678;2022-11-24T10:31:54;34.50;;;18.30;;
36971;SDS011;40554;52.122;20.678;2022-11-24T10:34:12;39.98;;;20.12;;
36971;SDS011;40554;52.122;20.678;2022-11-24T10:36:39;34.55;;;17.85;;
36971;SDS011;40554;52.122;20.678;2022-11-24T10:41:51;43.83;;;20.08;;
36971;SDS011;40554;52.122;20.678;2022-11-24T10:44:42;34.10;;;18.32;;
36971;SDS011;40554;52.122;20.678;2022-11-24T10:46:58;37.45;;;19.15;;
36971;SDS011;40554;52.122;20.678;2022-11-24T10:49:16;36.75;;;19.30;;
36971;SDS011;40554;52.122;20.678;2022-11-24T10:51:55;36.10;;;18.73;;
36971;SDS011;40554;52.122;20.678;2022-11-24T10:54:25;37.15;;;19.50;;
36971;SDS011;40554;52.122;20.678;2022-11-24T10:56:42;38.58;;;20.02;;
36971;SDS011;40554;52.122;20.678;2022-11-24T10:59:15;35.68;;;18.73;;
36971;SDS011;40554;52.122;20.678;2022-11-24T11:01:42;36.42;;;19.40;;
36971;SDS011;40554;52.122;20.678;2022-11-24T11:03:58;35.52;;;17.95;;
36971;SDS011;40554;52.122;20.678;2022-11-24T11:06:28;35.70;;;18.57;;
36971;SDS011;40554;52.122;20.678;2022-11-24T11:08:46;41.30;;;20.30;;
36971;SDS011;40554;52.122;20.678;2022-11-24T11:11:10;38.40;;;18.37;;
36971;SDS011;40554;52.122;20.678;2022-11-24T11:13:46;38.63;;;20.52;;
36971;SDS011;40554;52.122;20.678;2022-11-24T11:16:12;33.30;;;17.20;;
36971;SDS011;40554;52.122;20.678;2022-11-24T11:18:32;39.23;;;19.20;;
36971;SDS011;40554;52.122;20.678;2022-11-24T11:20:50;42.27;;;20.45;;
36971;SDS011;40554;52.122;20.678;2022-11-24T11:23:13;39.25;;;19.80;;
36971;SDS011;40554;52.122;20.678;2022-11-24T11:25:41;37.63;;;20.37;;
36971;SDS011;40554;52.122;20.678;2022-11-24T11:30:34;47.70;;;21.57;;
36971;SDS011;40554;52.122;20.678;2022-11-24T11:35:14;40.43;;;19.42;;
36971;SDS011;40554;52.122;20.678;2022-11-24T11:37:30;40.00;;;19.52;;
36971;SDS011;40554;52.122;20.678;2022-11-24T11:39:53;33.45;;;18.23;;
36971;SDS011;40554;52.122;20.678;2022-11-24T11:42:21;36.60;;;18.62;;
36971;SDS011;40554;52.122;20.678;2022-11-24T11:49:58;36.10;;;18.70;;
36971;SDS011;40554;52.122;20.678;2022-11-24T12:00:16;42.20;;;20.23;;
36971;SDS011;40554;52.122;20.678;2022-11-24T12:03:37;44.73;;;21.97;;
36971;SDS011;40554;52.122;20.678;2022-11-24T12:05:28;42.55;;;21.80;;
36971;SDS011;40554;52.122;20.678;2022-11-24T12:08:01;44.18;;;21.87;;
36971;SDS011;40554;52.122;20.678;2022-11-24T12:10:44;44.50;;;20.68;;
36971;SDS011;40554;52.122;20.678;2022-11-24T12:15:55;51.85;;;25.77;;
36971;SDS011;40554;52.122;20.678;2022-11-24T12:20:59;40.28;;;20.72;;
36971;SDS011;40554;52.122;20.678;2022-11-24T12:26:27;39.45;;;18.80;;
36971;SDS011;40554;52.122;20.678;2022-11-24T12:28:56;44.90;;;21.17;;
36971;SDS011;40554;52.122;20.678;2022-11-24T12:31:41;45.98;;;21.52;;
36971;SDS011;40554;52.122;20.678;2022-11-24T12:34:19;48.70;;;23.18;;
36971;SDS011;40554;52.122;20.678;2022-11-24T12:36:58;52.40;;;24.45;;
36971;SDS011;40554;52.122;20.678;2022-11-24T12:39:33;48.38;;;22.15;;
36971;SDS011;40554;52.122;20.678;2022-11-24T12:47:27;57.13;;;29.30;;
36971;SDS011;40554;52.122;20.678;2022-11-24T12:50:09;55.20;;;28.15;;
36971;SDS011;40554;52.122;20.678;2022-11-24T12:52:30;53.48;;;26.95;;
36971;SDS011;40554;52.122;20.678;2022-11-24T12:54:53;48.90;;;24.57;;
36971;SDS011;40554;52.122;20.678;2022-11-24T13:00:11;63.87;;;29.67;;
36971;SDS011;40554;52.122;20.678;2022-11-24T13:05:32;50.20;;;26.95;;
36971;SDS011;40554;52.122;20.678;2022-11-24T13:08:10;55.15;;;27.45;;
36971;SDS011;40554;52.122;20.678;2022-11-24T13:10:30;54.95;;;28.98;;
36971;SDS011;40554;52.122;20.678;2022-11-24T13:12:56;54.35;;;29.40;;
36971;SDS011;40554;52.122;20.678;2022-11-24T13:15:20;54.67;;;31.85;;
36971;SDS011;40554;52.122;20.678;2022-11-24T13:17:37;51.42;;;24.72;;
36971;SDS011;40554;52.122;20.678;2022-11-24T13:20:03;46.55;;;23.52;;
36971;SDS011;40554;52.122;20.678;2022-11-24T13:22:27;50.17;;;24.40;;
36971;SDS011;40554;52.122;20.678;2022-11-24T13:24:44;54.60;;;24.60;;
36971;SDS011;40554;52.122;20.678;2022-11-24T13:29:36;49.58;;;25.45;;
36971;SDS011;40554;52.122;20.678;2022-11-24T13:31:54;50.92;;;24.72;;
36971;SDS011;40554;52.122;20.678;2022-11-24T13:37:02;49.23;;;25.92;;
36971;SDS011;40554;52.122;20.678;2022-11-24T13:39:21;50.10;;;24.63;;
36971;SDS011;40554;52.122;20.678;2022-11-24T13:44:24;58.28;;;27.00;;
36971;SDS011;40554;52.122;20.678;2022-11-24T13:49:18;77.27;;;37.63;;
36971;SDS011;40554;52.122;20.678;2022-11-24T13:51:34;66.53;;;31.45;;
36971;SDS011;40554;52.122;20.678;2022-11-24T13:53:50;60.90;;;29.35;;
36971;SDS011;40554;52.122;20.678;2022-11-24T14:01:21;48.02;;;26.05;;
36971;SDS011;40554;52.122;20.678;2022-11-24T14:06:20;61.95;;;31.93;;
36971;SDS011;40554;52.122;20.678;2022-11-24T14:08:38;69.17;;;33.85;;
36971;SDS011;40554;52.122;20.678;2022-11-24T14:10:55;57.93;;;30.35;;
36971;SDS011;40554;52.122;20.678;2022-11-24T14:15:43;51.75;;;26.77;;
36971;SDS011;40554;52.122;20.678;2022-11-24T14:18:19;52.17;;;24.75;;
36971;SDS011;40554;52.122;20.678;2022-11-24T14:20:40;45.35;;;23.50;;
36971;SDS011;40554;52.122;20.678;2022-11-24T14:22:58;53.33;;;28.10;;
36971;SDS011;40554;52.122;20.678;2022-11-24T14:25:28;54.33;;;26.62;;
36971;SDS011;40554;52.122;20.678;2022-11-24T14:27:46;46.60;;;22.95;;
36971;SDS011;40554;52.122;20.678;2022-11-24T14:32:35;47.08;;;22.65;;
36971;SDS011;40554;52.122;20.678;2022-11-24T14:34:54;47.58;;;24.18;;
36971;SDS011;40554;52.122;20.678;2022-11-24T14:37:11;53.68;;;24.02;;
36971;SDS011;40554;52.122;20.678;2022-11-24T14:39:28;46.50;;;23.18;;
36971;SDS011;40554;52.122;20.678;2022-11-24T14:41:49;49.80;;;21.02;;
36971;SDS011;40554;52.122;20.678;2022-11-24T14:44:28;44.53;;;20.72;;
36971;SDS011;40554;52.122;20.678;2022-11-24T14:47:01;47.78;;;23.52;;
36971;SDS011;40554;52.122;20.678;2022-11-24T14:49:21;48.28;;;22.73;;
36971;SDS011;40554;52.122;20.678;2022-11-24T14:51:41;47.48;;;22.82;;
36971;SDS011;40554;52.122;20.678;2022-11-24T14:54:00;51.17;;;25.03;;
36971;SDS011;40554;52.122;20.678;2022-11-24T14:56:24;48.38;;;23.80;;
36971;SDS011;40554;52.122;20.678;2022-11-24T14:58:47;45.03;;;23.15;;
36971;SDS011;40554;52.122;20.678;2022-11-24T15:01:17;48.85;;;25.08;;